createdAt,value
2023-04-07T00:00:13.797Z,54.22
2023-04-07T00:00:35.757Z,54.32
2023-04-07T00:00:57.654Z,54.19
2023-04-07T00:01:19.210Z,54.10
2023-04-07T00:01:42.520Z,54.29
2023-04-07T00:02:04.217Z,54.14
2023-04-07T00:02:27.045Z,54.31
2023-04-07T00:02:48.905Z,54.07
2023-04-07T00:03:12.858Z,54.00
2023-04-07T00:03:34.839Z,53.98
2023-04-07T00:03:57.308Z,53.95
2023-04-07T00:04:19.498Z,54.00
2023-04-07T00:04:42.245Z,53.93
2023-04-07T00:05:04.211Z,54.05
2023-04-07T00:05:26.100Z,53.95
2023-04-07T00:05:47.808Z,53.92
2023-04-07T00:06:10.477Z,54.24
2023-04-07T00:06:32.732Z,54.10
2023-04-07T00:06:54.427Z,53.93
2023-04-07T00:07:16.267Z,53.91
2023-04-07T00:07:48.862Z,53.75
2023-04-07T00:08:18.864Z,53.71
2023-04-07T00:08:41.872Z,53.72
2023-04-07T00:09:03.691Z,53.68
2023-04-07T00:09:25.321Z,53.86
2023-04-07T00:09:47.925Z,53.82
2023-04-07T00:10:10.413Z,53.73
2023-04-07T00:10:32.231Z,53.86
2023-04-07T00:10:53.900Z,53.79
2023-04-07T00:11:15.686Z,53.78
2023-04-07T00:11:38.653Z,53.82
2023-04-07T00:12:29.142Z,53.90
2023-04-07T00:12:50.805Z,53.85
2023-04-07T00:13:13.547Z,53.86
2023-04-07T00:13:35.276Z,53.92
2023-04-07T00:13:57.113Z,54.07
2023-04-07T00:14:18.871Z,53.94
2023-04-07T00:14:40.581Z,54.07
2023-04-07T00:15:03.238Z,53.79
2023-04-07T00:15:24.854Z,53.71
2023-04-07T00:15:46.569Z,53.80
2023-04-07T00:16:08.535Z,53.85
2023-04-07T00:16:31.169Z,53.89
2023-04-07T00:16:52.953Z,53.87
2023-04-07T00:17:14.742Z,54.06
2023-04-07T00:17:36.433Z,54.03
2023-04-07T00:17:58.115Z,54.00
2023-04-07T00:18:20.883Z,54.02
2023-04-07T00:18:42.559Z,54.17
2023-04-07T00:19:04.207Z,54.32
2023-04-07T00:19:27.000Z,54.22
2023-04-07T00:19:48.623Z,54.03
2023-04-07T00:20:11.140Z,54.02
2023-04-07T00:20:32.757Z,54.02
2023-04-07T00:20:55.550Z,54.48
2023-04-07T00:21:17.245Z,54.41
2023-04-07T00:21:38.915Z,54.45
2023-04-07T00:22:00.636Z,54.12
2023-04-07T00:22:23.437Z,54.35
2023-04-07T00:22:45.418Z,54.19
2023-04-07T00:23:07.068Z,54.13
2023-04-07T00:23:28.837Z,54.23
2023-04-07T00:23:53.476Z,54.26
2023-04-07T00:24:21.030Z,54.26
2023-04-07T00:24:49.133Z,54.18
2023-04-07T00:25:11.013Z,54.15
2023-04-07T00:25:33.673Z,54.18
2023-04-07T00:25:55.275Z,54.17
2023-04-07T00:26:17.051Z,54.25
2023-04-07T00:26:39.562Z,54.33
2023-04-07T00:27:02.625Z,54.09
2023-04-07T00:27:24.350Z,54.12
2023-04-07T00:27:46.035Z,53.93
2023-04-07T00:28:07.710Z,54.04
2023-04-07T00:28:30.318Z,54.09
2023-04-07T00:28:52.099Z,54.07
2023-04-07T00:29:13.774Z,54.48
2023-04-07T00:29:35.423Z,54.39
2023-04-07T00:29:58.362Z,54.46
2023-04-07T00:30:20.582Z,54.48
2023-04-07T00:30:42.331Z,54.46
2023-04-07T00:31:04.085Z,54.54
2023-04-07T00:31:26.884Z,54.29
2023-04-07T00:31:48.724Z,54.24
2023-04-07T00:32:10.486Z,54.29
2023-04-07T00:32:33.336Z,54.13
2023-04-07T00:32:55.907Z,54.11
2023-04-07T00:33:18.869Z,54.10
2023-04-07T00:33:40.618Z,54.08
2023-04-07T00:34:02.419Z,54.04
2023-04-07T00:34:24.268Z,54.17
2023-04-07T00:34:46.904Z,53.92
2023-04-07T00:35:09.602Z,53.95
2023-04-07T00:35:31.356Z,54.03
2023-04-07T00:35:54.390Z,54.13
2023-04-07T00:36:16.211Z,54.13
2023-04-07T00:36:38.872Z,54.05
2023-04-07T00:37:00.644Z,53.85
2023-04-07T00:37:22.410Z,53.95
2023-04-07T00:37:45.269Z,53.79
2023-04-07T00:38:07.918Z,54.12
2023-04-07T00:38:29.564Z,54.09
2023-04-07T00:38:52.762Z,54.04
2023-04-07T00:39:14.455Z,54.01
2023-04-07T00:39:37.040Z,54.10
2023-04-07T00:39:59.815Z,54.13
2023-04-07T00:40:21.630Z,54.02
2023-04-07T00:40:43.380Z,54.17
2023-04-07T00:41:05.682Z,54.29
2023-04-07T00:41:27.347Z,54.29
2023-04-07T00:41:50.051Z,54.29
2023-04-07T00:42:11.915Z,54.28
2023-04-07T00:42:33.693Z,54.15
2023-04-07T00:42:55.399Z,54.27
2023-04-07T00:43:19.744Z,54.22
2023-04-07T00:43:41.613Z,54.16
2023-04-07T00:44:03.863Z,54.17
2023-04-07T00:44:25.654Z,54.23
2023-04-07T00:44:47.660Z,54.20
2023-04-07T00:45:11.529Z,54.33
2023-04-07T00:45:33.440Z,54.43
2023-04-07T00:45:55.179Z,54.41
2023-04-07T00:46:17.952Z,54.36
2023-04-07T00:46:39.841Z,54.26
2023-04-07T00:47:02.767Z,54.28
2023-04-07T00:47:24.679Z,54.30
2023-04-07T00:47:46.503Z,54.24
2023-04-07T00:48:08.905Z,54.30
2023-04-07T00:48:31.933Z,54.19
2023-04-07T00:48:53.733Z,54.17
2023-04-07T00:49:17.731Z,54.45
2023-04-07T00:49:39.941Z,54.66
2023-04-07T00:50:03.846Z,54.31
2023-04-07T00:50:26.664Z,54.51
2023-04-07T00:50:48.447Z,54.57
2023-04-07T00:51:10.467Z,54.49
2023-04-07T00:51:32.418Z,54.24
2023-04-07T00:51:55.427Z,54.36
2023-04-07T00:52:18.858Z,54.33
2023-04-07T00:52:40.624Z,54.40
2023-04-07T00:53:02.688Z,54.36
2023-04-07T00:53:25.664Z,54.61
2023-04-07T00:53:47.959Z,54.49
2023-04-07T00:54:11.194Z,54.55
2023-04-07T00:54:32.993Z,54.70
2023-04-07T00:54:56.423Z,54.63
2023-04-07T00:55:18.279Z,54.59
2023-04-07T00:55:40.269Z,54.53
2023-04-07T00:56:02.394Z,54.73
2023-04-07T00:56:25.177Z,54.83
2023-04-07T00:56:46.937Z,54.84
2023-04-07T00:57:09.167Z,54.73
2023-04-07T00:57:31.992Z,54.78
2023-04-07T00:57:54.933Z,54.59
2023-04-07T00:58:16.669Z,54.58
2023-04-07T00:58:38.610Z,54.36
2023-04-07T00:59:01.190Z,54.68
2023-04-07T00:59:24.753Z,54.69
2023-04-07T00:59:47.512Z,54.73
2023-04-07T01:00:10.877Z,54.78
2023-04-07T01:00:36.009Z,54.67
2023-04-07T01:01:07.301Z,54.41
2023-04-07T01:01:36.788Z,54.39
2023-04-07T01:02:05.865Z,54.27
2023-04-07T01:02:34.195Z,54.19
2023-04-07T01:03:01.216Z,54.12
2023-04-07T01:03:32.103Z,54.34
2023-04-07T01:04:01.652Z,54.43
2023-04-07T01:04:30.268Z,54.53
2023-04-07T01:05:00.021Z,54.47
2023-04-07T01:05:26.070Z,54.32
2023-04-07T01:05:54.782Z,54.53
2023-04-07T01:06:21.325Z,54.48
2023-04-07T01:06:49.072Z,54.50
2023-04-07T01:07:16.307Z,54.57
2023-04-07T01:07:52.855Z,54.52
2023-04-07T01:08:18.961Z,54.49
2023-04-07T01:08:50.038Z,54.55
2023-04-07T01:09:19.896Z,54.55
2023-04-07T01:09:48.899Z,54.71
2023-04-07T01:10:17.365Z,54.56
2023-04-07T01:10:51.848Z,54.63
2023-04-07T01:11:21.037Z,54.40
2023-04-07T01:11:48.663Z,54.48
2023-04-07T01:12:22.531Z,54.52
2023-04-07T01:12:51.926Z,54.39
2023-04-07T01:13:24.757Z,54.35
2023-04-07T01:13:52.383Z,54.45
2023-04-07T01:14:47.471Z,54.35
2023-04-07T01:15:37.803Z,54.33
2023-04-07T01:16:04.407Z,54.37
2023-04-07T01:16:34.278Z,54.28
2023-04-07T01:16:59.077Z,54.21
2023-04-07T01:17:23.895Z,54.01
2023-04-07T01:17:52.399Z,54.05
2023-04-07T01:18:22.144Z,54.03
2023-04-07T01:18:47.158Z,54.08
2023-04-07T01:19:14.722Z,54.18
2023-04-07T01:19:44.245Z,54.33
2023-04-07T01:20:12.505Z,54.28
2023-04-07T01:20:36.136Z,54.24
2023-04-07T01:21:03.605Z,54.33
2023-04-07T01:21:28.832Z,54.32
2023-04-07T01:21:54.196Z,54.41
2023-04-07T01:22:21.177Z,54.33
2023-04-07T01:22:47.014Z,54.38
2023-04-07T01:23:10.053Z,54.55
2023-04-07T01:23:47.739Z,54.45
2023-04-07T01:24:39.314Z,54.47
2023-04-07T01:25:18.884Z,54.44
2023-04-07T01:26:06.529Z,54.83
2023-04-07T01:26:30.248Z,54.87
2023-04-07T01:26:53.481Z,54.82
2023-04-07T01:27:23.242Z,54.83
2023-04-07T01:27:56.915Z,54.95
2023-04-07T01:28:36.606Z,54.73
2023-04-07T01:29:13.534Z,54.85
2023-04-07T01:29:42.270Z,54.71
2023-04-07T01:30:09.271Z,54.73
2023-04-07T01:30:33.325Z,54.73
2023-04-07T01:30:59.142Z,54.74
2023-04-07T01:31:23.083Z,54.59
2023-04-07T01:31:47.454Z,54.71
2023-04-07T01:32:12.997Z,54.60
2023-04-07T01:32:36.928Z,54.73
2023-04-07T01:33:00.855Z,54.52
2023-04-07T01:33:24.147Z,54.59
2023-04-07T01:33:48.133Z,54.71
2023-04-07T01:34:11.977Z,54.71
2023-04-07T01:34:35.599Z,54.48
2023-04-07T01:34:58.482Z,54.56
2023-04-07T01:35:21.731Z,54.36
2023-04-07T01:35:44.410Z,54.54
2023-04-07T01:36:08.848Z,54.48
2023-04-07T01:36:33.752Z,54.49
2023-04-07T01:36:57.665Z,54.38
2023-04-07T01:37:21.812Z,54.29
2023-04-07T01:37:46.566Z,54.33
2023-04-07T01:38:11.173Z,54.44
2023-04-07T01:38:33.702Z,54.38
2023-04-07T01:38:56.251Z,54.44
2023-04-07T01:39:20.220Z,54.52
2023-04-07T01:39:43.069Z,54.38
2023-04-07T01:40:07.679Z,54.30
2023-04-07T01:40:30.193Z,54.44
2023-04-07T01:40:53.173Z,54.49
2023-04-07T01:41:16.755Z,54.26
2023-04-07T01:41:39.548Z,54.17
2023-04-07T01:42:03.986Z,54.08
2023-04-07T01:42:26.503Z,53.97
2023-04-07T01:42:50.465Z,54.11
2023-04-07T01:43:13.401Z,54.18
2023-04-07T01:43:37.816Z,54.09
2023-04-07T01:44:01.197Z,54.03
2023-04-07T01:44:23.766Z,54.32
2023-04-07T01:44:49.232Z,54.29
2023-04-07T01:45:11.896Z,54.42
2023-04-07T01:45:36.265Z,54.48
2023-04-07T01:45:58.202Z,54.15
2023-04-07T01:46:21.818Z,54.44
2023-04-07T01:46:44.580Z,54.47
2023-04-07T01:47:06.617Z,54.52
2023-04-07T01:47:31.091Z,54.68
2023-04-07T01:47:54.328Z,54.48
2023-04-07T01:48:18.087Z,54.47
2023-04-07T01:48:40.258Z,54.57
2023-04-07T01:49:04.086Z,54.67
2023-04-07T01:49:27.092Z,54.71
2023-04-07T01:49:51.306Z,54.61
2023-04-07T01:50:14.498Z,54.77
2023-04-07T01:50:38.782Z,54.95
2023-04-07T01:51:00.907Z,54.74
2023-04-07T01:51:24.414Z,54.89
2023-04-07T01:51:50.202Z,54.86
2023-04-07T01:52:12.450Z,55.02
2023-04-07T01:52:35.794Z,54.87
2023-04-07T01:52:57.906Z,55.05
2023-04-07T01:53:21.253Z,55.16
2023-04-07T01:53:43.075Z,54.79
2023-04-07T01:54:05.714Z,55.02
2023-04-07T01:54:28.685Z,55.15
2023-04-07T01:54:51.776Z,55.08
2023-04-07T01:55:14.010Z,55.06
2023-04-07T01:55:45.492Z,55.13
2023-04-07T01:56:07.581Z,54.88
2023-04-07T01:56:31.690Z,55.05
2023-04-07T01:56:56.451Z,54.92
2023-04-07T01:57:18.139Z,54.84
2023-04-07T01:57:41.429Z,55.13
2023-04-07T01:58:09.303Z,54.91
2023-04-07T01:58:35.257Z,55.04
2023-04-07T01:58:58.307Z,54.92
2023-04-07T01:59:20.368Z,54.77
2023-04-07T01:59:42.244Z,55.24
2023-04-07T02:00:06.923Z,55.07
2023-04-07T02:00:37.832Z,55.15
2023-04-07T02:01:05.771Z,54.97
2023-04-07T02:01:29.042Z,55.10
2023-04-07T02:01:51.479Z,55.03
2023-04-07T02:02:14.404Z,54.75
2023-04-07T02:02:41.599Z,55.06
2023-04-07T02:03:11.794Z,54.86
2023-04-07T02:03:40.712Z,54.86
2023-04-07T02:04:11.951Z,55.00
2023-04-07T02:04:38.853Z,54.77
2023-04-07T02:05:05.773Z,54.75
2023-04-07T02:05:31.122Z,54.55
2023-04-07T02:05:57.530Z,54.53
2023-04-07T02:06:28.462Z,54.47
2023-04-07T02:06:54.269Z,54.60
2023-04-07T02:07:29.873Z,54.58
2023-04-07T02:07:56.783Z,54.79
2023-04-07T02:08:22.612Z,54.85
2023-04-07T02:08:52.657Z,54.80
2023-04-07T02:09:17.270Z,54.75
2023-04-07T02:09:41.519Z,54.73
2023-04-07T02:10:07.217Z,54.66
2023-04-07T02:10:29.933Z,54.53
2023-04-07T02:10:57.601Z,54.57
2023-04-07T02:11:22.256Z,54.65
2023-04-07T02:11:47.778Z,54.68
2023-04-07T02:12:13.045Z,54.35
2023-04-07T02:12:42.071Z,54.46
2023-04-07T02:13:13.452Z,54.68
2023-04-07T02:13:37.811Z,54.74
2023-04-07T02:14:01.678Z,54.54
2023-04-07T02:14:27.150Z,54.37
2023-04-07T02:14:58.889Z,54.18
2023-04-07T02:15:23.796Z,54.15
2023-04-07T02:15:46.883Z,54.00
2023-04-07T02:16:10.572Z,54.13
2023-04-07T02:16:32.924Z,54.15
2023-04-07T02:16:57.102Z,54.31
2023-04-07T02:17:19.278Z,54.05
2023-04-07T02:17:45.964Z,54.35
2023-04-07T02:18:10.524Z,54.32
2023-04-07T02:18:34.477Z,54.41
2023-04-07T02:18:58.918Z,54.35
2023-04-07T02:19:21.100Z,54.62
2023-04-07T02:19:44.594Z,54.55
2023-04-07T02:20:08.265Z,54.71
2023-04-07T02:20:33.567Z,54.65
2023-04-07T02:20:56.372Z,54.62
2023-04-07T02:21:19.378Z,54.63
2023-04-07T02:21:43.140Z,54.45
2023-04-07T02:22:06.330Z,54.63
2023-04-07T02:22:29.064Z,54.62
2023-04-07T02:22:51.180Z,54.70
2023-04-07T02:23:14.162Z,54.50
2023-04-07T02:23:36.452Z,54.61
2023-04-07T02:24:01.173Z,54.72
2023-04-07T02:24:22.848Z,54.73
2023-04-07T02:24:46.099Z,54.75
2023-04-07T02:25:21.740Z,54.47
2023-04-07T02:25:43.547Z,54.32
2023-04-07T02:26:05.381Z,54.41
2023-04-07T02:26:27.005Z,54.56
2023-04-07T02:26:51.225Z,54.58
2023-04-07T02:27:13.003Z,54.62
2023-04-07T02:27:34.719Z,54.33
2023-04-07T02:27:57.956Z,54.47
2023-04-07T02:28:19.606Z,54.30
2023-04-07T02:28:41.308Z,54.55
2023-04-07T02:29:04.430Z,54.33
2023-04-07T02:29:26.229Z,54.52
2023-04-07T02:29:47.873Z,54.34
2023-04-07T02:30:11.034Z,54.37
2023-04-07T02:30:35.874Z,54.54
2023-04-07T02:30:57.677Z,54.70
2023-04-07T02:31:19.767Z,54.33
2023-04-07T02:31:41.572Z,54.25
2023-04-07T02:32:03.309Z,54.45
2023-04-07T02:32:26.303Z,54.27
2023-04-07T02:32:48.264Z,54.49
2023-04-07T02:33:09.975Z,54.63
2023-04-07T02:33:31.670Z,54.68
2023-04-07T02:33:53.382Z,54.52
2023-04-07T02:34:16.807Z,54.60
2023-04-07T02:34:38.457Z,54.61
2023-04-07T02:35:01.801Z,54.50
2023-04-07T02:35:24.066Z,54.46
2023-04-07T02:35:46.772Z,54.28
2023-04-07T02:36:08.611Z,54.74
2023-04-07T02:36:31.222Z,54.28
2023-04-07T02:36:53.539Z,54.34
2023-04-07T02:37:15.334Z,54.20
2023-04-07T02:37:38.070Z,54.29
2023-04-07T02:37:59.822Z,54.56
2023-04-07T02:38:21.616Z,54.34
2023-04-07T02:38:43.300Z,54.45
2023-04-07T02:39:05.995Z,54.38
2023-04-07T02:39:27.664Z,54.57
2023-04-07T02:39:49.328Z,54.41
2023-04-07T02:40:11.436Z,54.45
2023-04-07T02:40:33.172Z,54.32
2023-04-07T02:40:56.438Z,54.40
2023-04-07T02:41:18.355Z,54.34
2023-04-07T02:41:40.030Z,54.28
2023-04-07T02:42:01.722Z,54.23
2023-04-07T02:42:25.948Z,54.38
2023-04-07T02:42:47.692Z,54.49
2023-04-07T02:43:09.335Z,54.45
2023-04-07T02:43:31.121Z,54.23
2023-04-07T02:43:54.053Z,54.44
2023-04-07T02:44:16.345Z,54.37
2023-04-07T02:44:38.084Z,54.51
2023-04-07T02:44:59.856Z,54.35
2023-04-07T02:45:22.668Z,54.37
2023-04-07T02:45:45.752Z,54.56
2023-04-07T02:46:07.589Z,54.65
2023-04-07T02:46:29.315Z,54.32
2023-04-07T02:46:53.191Z,54.67
2023-04-07T02:47:14.869Z,54.45
2023-04-07T02:47:38.997Z,54.84
2023-04-07T02:48:00.879Z,54.44
2023-04-07T02:48:23.614Z,54.63
2023-04-07T02:48:45.314Z,54.34
2023-04-07T02:49:07.028Z,54.44
2023-04-07T02:49:28.610Z,54.23
2023-04-07T02:49:51.872Z,54.34
2023-04-07T02:50:14.650Z,54.50
2023-04-07T02:50:36.514Z,54.48
2023-04-07T02:50:58.818Z,54.46
2023-04-07T02:51:20.517Z,54.12
2023-04-07T02:51:43.650Z,54.18
2023-04-07T02:52:05.307Z,54.36
2023-04-07T02:52:26.997Z,54.23
2023-04-07T02:52:48.965Z,54.15
2023-04-07T02:53:11.052Z,54.43
2023-04-07T02:53:33.748Z,54.07
2023-04-07T02:53:55.934Z,54.46
2023-04-07T02:54:17.896Z,54.21
2023-04-07T02:54:39.884Z,54.04
2023-04-07T02:55:03.863Z,54.26
2023-04-07T02:55:25.946Z,54.26
2023-04-07T02:55:47.584Z,54.34
2023-04-07T02:56:09.289Z,54.39
2023-04-07T02:56:32.620Z,54.31
2023-04-07T02:56:54.346Z,54.34
2023-04-07T02:57:16.303Z,54.40
2023-04-07T02:57:38.045Z,54.32
2023-04-07T02:58:04.851Z,54.27
2023-04-07T02:58:32.555Z,54.41
2023-04-07T02:58:54.230Z,54.14
2023-04-07T02:59:16.461Z,54.51
2023-04-07T02:59:39.153Z,54.33
2023-04-07T03:00:02.364Z,54.14
2023-04-07T03:00:38.975Z,54.36
2023-04-07T03:01:09.645Z,54.40
2023-04-07T03:01:31.401Z,54.42
2023-04-07T03:01:53.317Z,54.09
2023-04-07T03:02:15.476Z,54.19
2023-04-07T03:02:37.329Z,54.43
2023-04-07T03:03:00.372Z,54.40
2023-04-07T03:03:25.340Z,54.08
2023-04-07T03:04:00.753Z,54.27
2023-04-07T03:04:22.744Z,54.47
2023-04-07T03:04:45.438Z,54.62
2023-04-07T03:05:08.225Z,54.30
2023-04-07T03:05:29.900Z,54.29
2023-04-07T03:05:51.553Z,54.26
2023-04-07T03:06:13.416Z,54.35
2023-04-07T03:06:47.823Z,54.36
2023-04-07T03:07:11.177Z,54.11
2023-04-07T03:07:32.996Z,54.21
2023-04-07T03:07:56.168Z,54.25
2023-04-07T03:08:19.002Z,54.49
2023-04-07T03:08:42.151Z,54.18
2023-04-07T03:09:03.862Z,54.15
2023-04-07T03:09:25.610Z,54.10
2023-04-07T03:09:48.552Z,54.45
2023-04-07T03:10:12.283Z,54.41
2023-04-07T03:10:34.086Z,54.45
2023-04-07T03:10:56.942Z,54.50
2023-04-07T03:11:23.274Z,54.68
2023-04-07T03:11:45.266Z,54.44
2023-04-07T03:12:07.169Z,54.58
2023-04-07T03:12:31.949Z,54.33
2023-04-07T03:12:53.641Z,54.36
2023-04-07T03:13:16.529Z,54.70
2023-04-07T03:13:38.613Z,54.67
2023-04-07T03:14:01.252Z,54.68
2023-04-07T03:14:25.611Z,54.61
2023-04-07T03:14:47.210Z,54.69
2023-04-07T03:15:10.049Z,54.56
2023-04-07T03:15:33.138Z,54.43
2023-04-07T03:15:55.067Z,54.35
2023-04-07T03:16:18.528Z,54.30
2023-04-07T03:16:56.512Z,54.28
2023-04-07T03:17:20.401Z,54.02
2023-04-07T03:17:42.155Z,54.37
2023-04-07T03:18:05.221Z,54.34
2023-04-07T03:18:27.164Z,54.51
2023-04-07T03:18:54.672Z,54.30
2023-04-07T03:19:18.008Z,54.27
2023-04-07T03:19:44.423Z,54.00
2023-04-07T03:20:07.745Z,54.16
2023-04-07T03:20:31.805Z,54.11
2023-04-07T03:20:59.592Z,54.34
2023-04-07T03:21:22.204Z,54.23
2023-04-07T03:21:43.858Z,54.10
2023-04-07T03:22:05.539Z,54.18
2023-04-07T03:22:31.986Z,54.28
2023-04-07T03:22:53.969Z,54.10
2023-04-07T03:23:20.521Z,54.06
2023-04-07T03:23:42.305Z,54.28
2023-04-07T03:24:04.507Z,54.11
2023-04-07T03:24:27.215Z,54.34
2023-04-07T03:24:48.834Z,53.96
2023-04-07T03:25:11.134Z,53.98
2023-04-07T03:25:32.752Z,54.10
2023-04-07T03:25:57.582Z,54.17
2023-04-07T03:26:22.762Z,54.24
2023-04-07T03:26:45.578Z,54.43
2023-04-07T03:27:17.470Z,54.40
2023-04-07T03:27:42.744Z,54.46
2023-04-07T03:28:07.420Z,54.47
2023-04-07T03:28:32.484Z,54.53
2023-04-07T03:28:55.478Z,54.49
2023-04-07T03:29:17.330Z,54.39
2023-04-07T03:29:40.323Z,54.32
2023-04-07T03:30:06.923Z,54.40
2023-04-07T03:30:28.683Z,54.19
2023-04-07T03:30:50.513Z,54.40
2023-04-07T03:31:14.179Z,54.27
2023-04-07T03:31:37.728Z,54.29
2023-04-07T03:31:59.387Z,54.32
2023-04-07T03:32:23.374Z,54.44
2023-04-07T03:32:45.175Z,54.42
2023-04-07T03:33:06.829Z,54.43
2023-04-07T03:33:29.696Z,54.58
2023-04-07T03:33:51.708Z,54.46
2023-04-07T03:34:15.352Z,54.50
2023-04-07T03:34:37.168Z,54.33
2023-04-07T03:34:59.721Z,54.33
2023-04-07T03:35:21.425Z,54.41
2023-04-07T03:35:43.083Z,54.56
2023-04-07T03:36:07.530Z,54.43
2023-04-07T03:36:31.560Z,54.45
2023-04-07T03:36:55.931Z,54.39
2023-04-07T03:37:18.150Z,54.30
2023-04-07T03:37:40.513Z,54.28
2023-04-07T03:38:08.483Z,54.51
2023-04-07T03:38:31.846Z,54.57
2023-04-07T03:38:56.658Z,54.84
2023-04-07T03:39:18.384Z,54.76
2023-04-07T03:39:42.227Z,54.79
2023-04-07T03:40:18.797Z,54.67
2023-04-07T03:40:41.235Z,54.57
2023-04-07T03:41:03.363Z,54.62
2023-04-07T03:41:26.204Z,54.50
2023-04-07T03:41:47.815Z,54.72
2023-04-07T03:42:09.542Z,54.40
2023-04-07T03:42:31.224Z,54.36
2023-04-07T03:42:58.327Z,54.64
2023-04-07T03:43:20.001Z,54.44
2023-04-07T03:43:41.961Z,54.52
2023-04-07T03:44:05.231Z,54.44
2023-04-07T03:44:28.546Z,54.47
2023-04-07T03:44:52.352Z,54.66
2023-04-07T03:45:14.377Z,54.53
2023-04-07T03:45:41.403Z,54.63
2023-04-07T03:46:03.499Z,54.51
2023-04-07T03:46:27.382Z,54.66
2023-04-07T03:46:51.121Z,54.46
2023-04-07T03:47:13.966Z,54.56
2023-04-07T03:47:35.981Z,54.49
2023-04-07T03:48:00.919Z,54.58
2023-04-07T03:48:22.550Z,54.66
2023-04-07T03:48:54.046Z,54.64
2023-04-07T03:49:16.704Z,54.66
2023-04-07T03:49:39.508Z,54.58
2023-04-07T03:50:01.837Z,54.81
2023-04-07T03:50:26.325Z,54.84
2023-04-07T03:50:57.462Z,54.69
2023-04-07T03:51:20.184Z,54.48
2023-04-07T03:51:44.158Z,54.54
2023-04-07T03:52:10.346Z,54.40
2023-04-07T03:52:32.069Z,54.49
2023-04-07T03:53:03.019Z,54.54
2023-04-07T03:53:26.199Z,54.47
2023-04-07T03:53:48.292Z,54.60
2023-04-07T03:54:22.604Z,54.54
2023-04-07T03:54:44.256Z,54.35
2023-04-07T03:55:07.648Z,54.78
2023-04-07T03:55:29.848Z,54.44
2023-04-07T03:55:56.387Z,54.52
2023-04-07T03:56:35.096Z,54.46
2023-04-07T03:56:57.807Z,54.22
2023-04-07T03:57:19.563Z,54.29
2023-04-07T03:57:43.297Z,54.39
2023-04-07T03:58:06.061Z,54.07
2023-04-07T03:58:30.189Z,54.32
2023-04-07T03:58:52.034Z,54.12
2023-04-07T03:59:21.422Z,53.94
2023-04-07T03:59:56.168Z,53.87
2023-04-07T04:00:18.466Z,54.27
2023-04-07T04:00:52.364Z,54.01
2023-04-07T04:01:13.959Z,54.30
2023-04-07T04:01:38.895Z,54.12
2023-04-07T04:02:07.206Z,54.18
2023-04-07T04:02:29.189Z,54.33
2023-04-07T04:02:51.927Z,54.28
2023-04-07T04:03:16.478Z,54.18
2023-04-07T04:03:56.357Z,54.43
2023-04-07T04:04:24.393Z,54.23
2023-04-07T04:04:46.599Z,54.56
2023-04-07T04:05:10.699Z,54.24
2023-04-07T04:05:32.462Z,54.53
2023-04-07T04:05:54.555Z,54.61
2023-04-07T04:06:22.099Z,54.34
2023-04-07T04:06:45.803Z,54.29
2023-04-07T04:07:26.250Z,54.38
2023-04-07T04:07:51.287Z,54.24
2023-04-07T04:08:13.155Z,54.45
2023-04-07T04:08:36.787Z,54.26
2023-04-07T04:08:59.160Z,54.11
2023-04-07T04:09:21.313Z,54.26
2023-04-07T04:09:44.109Z,54.18
2023-04-07T04:10:09.050Z,54.41
2023-04-07T04:10:35.244Z,54.31
2023-04-07T04:10:57.273Z,54.00
2023-04-07T04:11:22.498Z,54.03
2023-04-07T04:11:52.615Z,53.85
2023-04-07T04:12:14.314Z,53.95
2023-04-07T04:12:48.341Z,54.09
2023-04-07T04:13:10.384Z,53.98
2023-04-07T04:13:34.015Z,53.81
2023-04-07T04:13:58.772Z,54.00
2023-04-07T04:14:20.960Z,53.90
2023-04-07T04:14:49.524Z,53.90
2023-04-07T04:15:12.488Z,53.65
2023-04-07T04:15:34.800Z,53.63
2023-04-07T04:15:58.706Z,53.84
2023-04-07T04:16:21.397Z,54.04
2023-04-07T04:16:44.797Z,53.96
2023-04-07T04:17:21.010Z,54.03
2023-04-07T04:17:42.768Z,54.05
2023-04-07T04:18:05.449Z,54.08
2023-04-07T04:18:28.232Z,54.19
2023-04-07T04:18:50.056Z,54.05
2023-04-07T04:19:12.028Z,54.01
2023-04-07T04:19:34.652Z,53.96
2023-04-07T04:20:02.209Z,54.22
2023-04-07T04:20:37.301Z,54.14
2023-04-07T04:20:59.470Z,54.18
2023-04-07T04:21:22.565Z,54.10
2023-04-07T04:21:44.201Z,54.30
2023-04-07T04:22:05.987Z,54.50
2023-04-07T04:22:32.270Z,54.40
2023-04-07T04:22:54.903Z,54.20
2023-04-07T04:23:16.721Z,54.34
2023-04-07T04:23:39.483Z,54.28
2023-04-07T04:24:01.719Z,54.40
2023-04-07T04:24:25.870Z,54.37
2023-04-07T04:24:49.690Z,54.32
2023-04-07T04:25:11.305Z,54.29
2023-04-07T04:25:35.242Z,54.21
2023-04-07T04:26:03.822Z,54.27
2023-04-07T04:26:27.369Z,53.88
2023-04-07T04:26:52.532Z,53.80
2023-04-07T04:27:15.413Z,54.06
2023-04-07T04:27:37.381Z,54.08
2023-04-07T04:28:10.519Z,54.11
2023-04-07T04:28:32.567Z,54.22
2023-04-07T04:28:55.906Z,54.16
2023-04-07T04:29:18.007Z,54.05
2023-04-07T04:29:40.569Z,54.18
2023-04-07T04:30:08.002Z,54.47
2023-04-07T04:30:34.456Z,54.20
2023-04-07T04:30:58.483Z,54.37
2023-04-07T04:31:21.178Z,54.19
2023-04-07T04:31:43.900Z,54.38
2023-04-07T04:32:06.366Z,54.22
2023-04-07T04:32:29.724Z,54.33
2023-04-07T04:32:51.819Z,54.47
2023-04-07T04:33:20.178Z,54.55
2023-04-07T04:33:48.153Z,54.54
2023-04-07T04:34:09.932Z,54.64
2023-04-07T04:34:33.189Z,54.51
2023-04-07T04:34:54.915Z,54.56
2023-04-07T04:35:16.851Z,54.62
2023-04-07T04:35:49.105Z,54.63
2023-04-07T04:36:14.998Z,54.49
2023-04-07T04:36:38.395Z,54.39
2023-04-07T04:37:01.072Z,54.60
2023-04-07T04:37:22.861Z,54.56
2023-04-07T04:37:45.851Z,54.68
2023-04-07T04:38:08.894Z,54.74
2023-04-07T04:38:33.241Z,54.80
2023-04-07T04:39:10.417Z,54.80
2023-04-07T04:39:33.612Z,54.61
2023-04-07T04:39:55.602Z,54.57
2023-04-07T04:40:18.880Z,54.83
2023-04-07T04:40:44.634Z,54.74
2023-04-07T04:41:07.263Z,54.54
2023-04-07T04:41:29.333Z,54.72
2023-04-07T04:41:51.774Z,54.56
2023-04-07T04:42:14.400Z,54.49
2023-04-07T04:42:36.558Z,54.66
2023-04-07T04:42:58.852Z,54.44
2023-04-07T04:43:21.548Z,54.49
2023-04-07T04:43:44.115Z,54.47
2023-04-07T04:44:09.574Z,54.44
2023-04-07T04:44:33.902Z,54.41
2023-04-07T04:44:57.774Z,54.53
2023-04-07T04:45:20.856Z,54.62
2023-04-07T04:45:43.598Z,54.55
2023-04-07T04:46:08.018Z,54.61
2023-04-07T04:46:34.702Z,54.64
2023-04-07T04:46:57.644Z,54.62
2023-04-07T04:47:19.655Z,54.47
2023-04-07T04:47:43.869Z,54.65
2023-04-07T04:48:06.381Z,54.46
2023-04-07T04:48:29.131Z,54.52
2023-04-07T04:48:51.684Z,54.43
2023-04-07T04:49:15.691Z,54.70
2023-04-07T04:49:39.121Z,54.64
2023-04-07T04:50:00.984Z,54.57
2023-04-07T04:50:23.819Z,54.59
2023-04-07T04:50:48.280Z,54.52
2023-04-07T04:51:10.361Z,54.33
2023-04-07T04:51:33.861Z,54.45
2023-04-07T04:52:02.811Z,54.54
2023-04-07T04:52:29.991Z,54.62
2023-04-07T04:52:51.785Z,54.51
2023-04-07T04:53:18.165Z,54.42
2023-04-07T04:54:00.561Z,54.53
2023-04-07T04:54:22.775Z,54.52
2023-04-07T04:54:44.787Z,54.53
2023-04-07T04:55:09.455Z,54.26
2023-04-07T04:55:32.404Z,54.42
2023-04-07T04:55:54.727Z,54.43
2023-04-07T04:56:19.523Z,54.53
2023-04-07T04:56:44.340Z,54.33
2023-04-07T04:57:06.663Z,54.28
2023-04-07T04:57:28.958Z,54.32
2023-04-07T04:57:51.058Z,54.17
2023-04-07T04:58:20.512Z,54.11
2023-04-07T04:58:46.475Z,54.14
2023-04-07T04:59:19.329Z,53.89
2023-04-07T04:59:51.660Z,54.16
2023-04-07T05:00:15.624Z,54.44
2023-04-07T05:00:39.465Z,54.36
2023-04-07T05:01:02.792Z,54.07
2023-04-07T05:01:33.355Z,54.00
2023-04-07T05:02:02.019Z,54.19
2023-04-07T05:02:24.028Z,53.92
2023-04-07T05:02:48.209Z,54.08
2023-04-07T05:03:10.991Z,54.28
2023-04-07T05:03:37.184Z,54.26
2023-04-07T05:04:06.682Z,54.26
2023-04-07T05:04:29.824Z,54.12
2023-04-07T05:04:59.358Z,54.01
2023-04-07T05:05:23.719Z,53.79
2023-04-07T05:05:48.804Z,53.91
2023-04-07T05:06:12.897Z,54.29
2023-04-07T05:06:36.537Z,54.31
2023-04-07T05:07:04.017Z,54.19
2023-04-07T05:07:27.147Z,54.12
2023-04-07T05:07:49.850Z,54.02
2023-04-07T05:08:12.144Z,54.15
2023-04-07T05:08:35.135Z,54.04
2023-04-07T05:08:57.891Z,54.14
2023-04-07T05:09:24.988Z,54.00
2023-04-07T05:09:47.344Z,54.12
2023-04-07T05:10:11.297Z,53.69
2023-04-07T05:10:41.167Z,53.93
2023-04-07T05:11:07.306Z,53.90
2023-04-07T05:11:30.088Z,54.10
2023-04-07T05:11:51.770Z,54.29
2023-04-07T05:12:16.926Z,54.14
2023-04-07T05:12:43.483Z,54.28